sensor_id;sensor_type;location;lat;lon;timestamp;temperature;humidity
10812;DHT22;5458;51.496;7.334;2022-07-29T00:01:21;21.30;64.40
10812;DHT22;5458;51.496;7.334;2022-07-29T00:03:47;21.30;65.00
10812;DHT22;5458;51.496;7.334;2022-07-29T00:06:14;21.20;64.20
10812;DHT22;5458;51.496;7.334;2022-07-29T00:08:40;21.20;64.40
10812;DHT22;5458;51.496;7.334;2022-07-29T00:11:05;21.20;64.40
10812;DHT22;5458;51.496;7.334;2022-07-29T00:13:31;21.20;64.40
10812;DHT22;5458;51.496;7.334;2022-07-29T00:15:57;21.20;64.30
10812;DHT22;5458;51.496;7.334;2022-07-29T00:18:22;21.10;64.70
10812;DHT22;5458;51.496;7.334;2022-07-29T00:20:48;21.10;64.70
10812;DHT22;5458;51.496;7.334;2022-07-29T00:23:13;21.10;65.10
10812;DHT22;5458;51.496;7.334;2022-07-29T00:25:39;21.10;65.40
10812;DHT22;5458;51.496;7.334;2022-07-29T00:28:04;21.00;65.40
10812;DHT22;5458;51.496;7.334;2022-07-29T00:30:30;21.00;65.70
10812;DHT22;5458;51.496;7.334;2022-07-29T00:32:56;21.00;66.00
10812;DHT22;5458;51.496;7.334;2022-07-29T00:35:22;21.00;66.10
10812;DHT22;5458;51.496;7.334;2022-07-29T00:38:06;21.00;65.90
10812;DHT22;5458;51.496;7.334;2022-07-29T00:40:32;21.00;65.80
10812;DHT22;5458;51.496;7.334;2022-07-29T00:42:57;20.90;65.50
10812;DHT22;5458;51.496;7.334;2022-07-29T00:45:23;20.90;66.10
10812;DHT22;5458;51.496;7.334;2022-07-29T00:47:49;20.90;66.10
10812;DHT22;5458;51.496;7.334;2022-07-29T00:50:15;20.90;66.10
10812;DHT22;5458;51.496;7.334;2022-07-29T00:52:42;20.90;66.20
10812;DHT22;5458;51.496;7.334;2022-07-29T00:55:13;20.90;66.20
10812;DHT22;5458;51.496;7.334;2022-07-29T00:57:40;20.90;66.40
10812;DHT22;5458;51.496;7.334;2022-07-29T01:00:08;20.90;66.80
10812;DHT22;5458;51.496;7.334;2022-07-29T01:02:35;20.80;66.50
10812;DHT22;5458;51.496;7.334;2022-07-29T01:05:02;20.80;66.70
10812;DHT22;5458;51.496;7.334;2022-07-29T01:07:30;20.80;67.10
10812;DHT22;5458;51.496;7.334;2022-07-29T01:09:57;20.70;66.90
10812;DHT22;5458;51.496;7.334;2022-07-29T01:12:25;20.70;67.10
10812;DHT22;5458;51.496;7.334;2022-07-29T01:14:52;20.70;67.20
10812;DHT22;5458;51.496;7.334;2022-07-29T01:17:33;20.60;67.30
10812;DHT22;5458;51.496;7.334;2022-07-29T01:20:03;20.60;67.60
10812;DHT22;5458;51.496;7.334;2022-07-29T01:30:42;20.40;69.00
10812;DHT22;5458;51.496;7.334;2022-07-29T01:33:13;20.30;69.60
10812;DHT22;5458;51.496;7.334;2022-07-29T01:36:02;20.30;69.20
10812;DHT22;5458;51.496;7.334;2022-07-29T01:38:31;20.30;69.50
10812;DHT22;5458;51.496;7.334;2022-07-29T01:41:05;20.30;69.30
10812;DHT22;5458;51.496;7.334;2022-07-29T01:43:57;20.30;69.40
10812;DHT22;5458;51.496;7.334;2022-07-29T01:46:34;20.30;69.70
10812;DHT22;5458;51.496;7.334;2022-07-29T01:49:21;20.30;70.00
10812;DHT22;5458;51.496;7.334;2022-07-29T01:52:01;20.20;70.20
10812;DHT22;5458;51.496;7.334;2022-07-29T01:54:41;20.30;70.40
10812;DHT22;5458;51.496;7.334;2022-07-29T01:57:09;20.30;70.40
10812;DHT22;5458;51.496;7.334;2022-07-29T01:59:37;20.20;70.60
10812;DHT22;5458;51.496;7.334;2022-07-29T02:02:04;20.10;70.50
10812;DHT22;5458;51.496;7.334;2022-07-29T02:04:35;20.10;71.00
10812;DHT22;5458;51.496;7.334;2022-07-29T02:07:04;20.00;71.30
10812;DHT22;5458;51.496;7.334;2022-07-29T02:09:32;20.00;71.90
10812;DHT22;5458;51.496;7.334;2022-07-29T02:11:59;20.10;72.10
10812;DHT22;5458;51.496;7.334;2022-07-29T02:14:26;20.00;71.70
10812;DHT22;5458;51.496;7.334;2022-07-29T02:16:56;20.00;72.20
10812;DHT22;5458;51.496;7.334;2022-07-29T02:19:24;20.00;72.20
10812;DHT22;5458;51.496;7.334;2022-07-29T02:21:53;20.00;72.40
10812;DHT22;5458;51.496;7.334;2022-07-29T02:24:20;19.90;72.50
10812;DHT22;5458;51.496;7.334;2022-07-29T02:26:47;20.00;72.90
10812;DHT22;5458;51.496;7.334;2022-07-29T02:29:14;19.90;73.30
10812;DHT22;5458;51.496;7.334;2022-07-29T02:31:44;19.90;74.10
10812;DHT22;5458;51.496;7.334;2022-07-29T02:34:13;19.90;74.60
10812;DHT22;5458;51.496;7.334;2022-07-29T02:36:40;19.90;75.20
10812;DHT22;5458;51.496;7.334;2022-07-29T02:39:08;19.90;75.00
10812;DHT22;5458;51.496;7.334;2022-07-29T02:41:52;19.90;75.30
10812;DHT22;5458;51.496;7.334;2022-07-29T02:44:19;19.80;74.70
10812;DHT22;5458;51.496;7.334;2022-07-29T02:52:08;19.80;75.00
10812;DHT22;5458;51.496;7.334;2022-07-29T02:57:21;19.70;75.80
10812;DHT22;5458;51.496;7.334;2022-07-29T02:59:51;19.60;76.50
10812;DHT22;5458;51.496;7.334;2022-07-29T03:02:18;19.60;77.90
10812;DHT22;5458;51.496;7.334;2022-07-29T03:04:46;19.60;77.70
10812;DHT22;5458;51.496;7.334;2022-07-29T03:07:14;19.60;78.10
10812;DHT22;5458;51.496;7.334;2022-07-29T03:09:41;19.60;78.30
10812;DHT22;5458;51.496;7.334;2022-07-29T03:12:08;19.60;78.80
10812;DHT22;5458;51.496;7.334;2022-07-29T03:14:35;19.60;79.10
10812;DHT22;5458;51.496;7.334;2022-07-29T03:17:01;19.60;79.40
10812;DHT22;5458;51.496;7.334;2022-07-29T03:19:28;19.60;78.80
10812;DHT22;5458;51.496;7.334;2022-07-29T03:21:56;19.60;78.90
10812;DHT22;5458;51.496;7.334;2022-07-29T03:24:40;19.60;78.50
10812;DHT22;5458;51.496;7.334;2022-07-29T03:27:06;19.70;78.60
10812;DHT22;5458;51.496;7.334;2022-07-29T03:29:32;19.60;78.60
10812;DHT22;5458;51.496;7.334;2022-07-29T03:31:58;19.60;78.70
10812;DHT22;5458;51.496;7.334;2022-07-29T03:34:23;19.60;78.80
10812;DHT22;5458;51.496;7.334;2022-07-29T03:36:49;19.60;79.10
10812;DHT22;5458;51.496;7.334;2022-07-29T03:39:18;19.60;79.00
10812;DHT22;5458;51.496;7.334;2022-07-29T03:41:45;19.60;79.10
10812;DHT22;5458;51.496;7.334;2022-07-29T03:44:13;19.60;79.10
10812;DHT22;5458;51.496;7.334;2022-07-29T03:46:39;19.60;79.20
10812;DHT22;5458;51.496;7.334;2022-07-29T03:49:06;19.50;79.40
10812;DHT22;5458;51.496;7.334;2022-07-29T03:51:33;19.60;79.90
10812;DHT22;5458;51.496;7.334;2022-07-29T03:54:02;19.50;79.70
10812;DHT22;5458;51.496;7.334;2022-07-29T03:56:29;19.60;79.80
10812;DHT22;5458;51.496;7.334;2022-07-29T03:58:57;19.60;80.10
10812;DHT22;5458;51.496;7.334;2022-07-29T04:01:24;19.50;80.20
10812;DHT22;5458;51.496;7.334;2022-07-29T04:03:51;19.50;80.30
10812;DHT22;5458;51.496;7.334;2022-07-29T04:06:16;19.60;80.70
10812;DHT22;5458;51.496;7.334;2022-07-29T04:08:42;19.60;80.30
10812;DHT22;5458;51.496;7.334;2022-07-29T04:11:07;19.60;80.30
10812;DHT22;5458;51.496;7.334;2022-07-29T04:13:33;19.50;80.20
10812;DHT22;5458;51.496;7.334;2022-07-29T04:15:59;19.40;80.20
10812;DHT22;5458;51.496;7.334;2022-07-29T04:18:25;19.50;80.80
10812;DHT22;5458;51.496;7.334;2022-07-29T04:20:50;19.50;80.60
10812;DHT22;5458;51.496;7.334;2022-07-29T04:23:16;19.50;81.20
10812;DHT22;5458;51.496;7.334;2022-07-29T04:25:42;19.50;80.90
10812;DHT22;5458;51.496;7.334;2022-07-29T04:28:09;19.50;81.20
10812;DHT22;5458;51.496;7.334;2022-07-29T04:30:36;19.40;81.30
10812;DHT22;5458;51.496;7.334;2022-07-29T04:33:04;19.40;81.50
10812;DHT22;5458;51.496;7.334;2022-07-29T04:35:30;19.50;81.80
10812;DHT22;5458;51.496;7.334;2022-07-29T04:37:56;19.40;82.20
10812;DHT22;5458;51.496;7.334;2022-07-29T04:40:22;19.40;82.80
10812;DHT22;5458;51.496;7.334;2022-07-29T04:42:48;19.40;82.60
10812;DHT22;5458;51.496;7.334;2022-07-29T04:45:14;19.30;82.90
10812;DHT22;5458;51.496;7.334;2022-07-29T04:47:39;19.30;83.30
10812;DHT22;5458;51.496;7.334;2022-07-29T04:50:05;19.20;84.70
10812;DHT22;5458;51.496;7.334;2022-07-29T04:52:32;19.20;86.70
10812;DHT22;5458;51.496;7.334;2022-07-29T04:54:57;19.30;89.50
10812;DHT22;5458;51.496;7.334;2022-07-29T04:57:23;19.20;90.30
10812;DHT22;5458;51.496;7.334;2022-07-29T04:59:49;19.20;91.20
10812;DHT22;5458;51.496;7.334;2022-07-29T05:02:14;19.20;91.80
10812;DHT22;5458;51.496;7.334;2022-07-29T05:04:40;19.20;91.70
10812;DHT22;5458;51.496;7.334;2022-07-29T05:07:05;19.10;91.90
10812;DHT22;5458;51.496;7.334;2022-07-29T05:09:31;19.10;92.00
10812;DHT22;5458;51.496;7.334;2022-07-29T05:11:57;19.00;92.20
10812;DHT22;5458;51.496;7.334;2022-07-29T05:14:23;18.90;92.80
10812;DHT22;5458;51.496;7.334;2022-07-29T05:16:49;18.90;92.70
10812;DHT22;5458;51.496;7.334;2022-07-29T05:19:16;18.90;93.50
10812;DHT22;5458;51.496;7.334;2022-07-29T05:21:43;18.90;94.30
10812;DHT22;5458;51.496;7.334;2022-07-29T05:24:09;18.80;95.40
10812;DHT22;5458;51.496;7.334;2022-07-29T05:26:35;18.90;95.80
10812;DHT22;5458;51.496;7.334;2022-07-29T05:29:00;18.80;96.40
10812;DHT22;5458;51.496;7.334;2022-07-29T05:31:26;18.80;97.00
10812;DHT22;5458;51.496;7.334;2022-07-29T05:33:52;18.80;97.90
10812;DHT22;5458;51.496;7.334;2022-07-29T05:36:18;18.80;98.50
10812;DHT22;5458;51.496;7.334;2022-07-29T05:38:43;18.80;98.00
10812;DHT22;5458;51.496;7.334;2022-07-29T05:41:09;18.70;97.80
10812;DHT22;5458;51.496;7.334;2022-07-29T05:43:34;18.70;98.20
10812;DHT22;5458;51.496;7.334;2022-07-29T05:46:00;18.80;98.70
10812;DHT22;5458;51.496;7.334;2022-07-29T05:48:26;18.80;99.40
10812;DHT22;5458;51.496;7.334;2022-07-29T05:50:51;19.00;99.20
10812;DHT22;5458;51.496;7.334;2022-07-29T05:53:17;19.20;99.60
10812;DHT22;5458;51.496;7.334;2022-07-29T05:55:43;19.50;98.40
10812;DHT22;5458;51.496;7.334;2022-07-29T05:58:08;19.60;98.20
10812;DHT22;5458;51.496;7.334;2022-07-29T06:00:34;19.70;98.40
10812;DHT22;5458;51.496;7.334;2022-07-29T06:02:59;19.80;98.70
10812;DHT22;5458;51.496;7.334;2022-07-29T06:05:25;19.80;99.10
10812;DHT22;5458;51.496;7.334;2022-07-29T06:07:50;19.80;98.10
10812;DHT22;5458;51.496;7.334;2022-07-29T06:10:16;19.80;98.90
10812;DHT22;5458;51.496;7.334;2022-07-29T06:12:42;19.70;98.60
10812;DHT22;5458;51.496;7.334;2022-07-29T06:15:08;19.70;99.30
10812;DHT22;5458;51.496;7.334;2022-07-29T06:17:34;19.80;99.40
10812;DHT22;5458;51.496;7.334;2022-07-29T06:19:59;19.80;99.10
10812;DHT22;5458;51.496;7.334;2022-07-29T06:22:25;19.90;98.90
10812;DHT22;5458;51.496;7.334;2022-07-29T06:24:51;20.00;97.50
10812;DHT22;5458;51.496;7.334;2022-07-29T06:27:16;20.20;98.20
10812;DHT22;5458;51.496;7.334;2022-07-29T06:29:42;20.80;98.70
10812;DHT22;5458;51.496;7.334;2022-07-29T06:32:08;22.10;96.20
10812;DHT22;5458;51.496;7.334;2022-07-29T06:34:35;23.40;94.90
10812;DHT22;5458;51.496;7.334;2022-07-29T06:37:05;25.10;90.30
10812;DHT22;5458;51.496;7.334;2022-07-29T06:39:31;26.50;85.30
10812;DHT22;5458;51.496;7.334;2022-07-29T06:41:56;27.50;84.00
10812;DHT22;5458;51.496;7.334;2022-07-29T06:44:22;28.90;77.90
10812;DHT22;5458;51.496;7.334;2022-07-29T06:46:47;29.20;72.30
10812;DHT22;5458;51.496;7.334;2022-07-29T06:49:14;28.20;73.90
10812;DHT22;5458;51.496;7.334;2022-07-29T06:51:40;27.10;77.60
10812;DHT22;5458;51.496;7.334;2022-07-29T06:54:05;26.10;79.90
10812;DHT22;5458;51.496;7.334;2022-07-29T06:56:33;25.30;82.10
10812;DHT22;5458;51.496;7.334;2022-07-29T06:58:59;24.80;85.90
10812;DHT22;5458;51.496;7.334;2022-07-29T07:01:24;25.10;86.20
10812;DHT22;5458;51.496;7.334;2022-07-29T07:03:50;25.10;81.60
10812;DHT22;5458;51.496;7.334;2022-07-29T07:06:16;24.80;81.90
10812;DHT22;5458;51.496;7.334;2022-07-29T07:08:41;24.50;82.20
10812;DHT22;5458;51.496;7.334;2022-07-29T07:11:08;24.20;83.90
10812;DHT22;5458;51.496;7.334;2022-07-29T07:13:33;24.40;83.50
10812;DHT22;5458;51.496;7.334;2022-07-29T07:16:03;25.00;82.30
10812;DHT22;5458;51.496;7.334;2022-07-29T07:18:29;25.30;79.50
10812;DHT22;5458;51.496;7.334;2022-07-29T07:20:56;25.20;78.60
10812;DHT22;5458;51.496;7.334;2022-07-29T07:23:22;24.90;80.60
10812;DHT22;5458;51.496;7.334;2022-07-29T07:25:47;24.70;82.90
10812;DHT22;5458;51.496;7.334;2022-07-29T07:28:13;24.60;83.10
10812;DHT22;5458;51.496;7.334;2022-07-29T07:30:39;24.70;84.00
10812;DHT22;5458;51.496;7.334;2022-07-29T07:33:05;24.70;83.40
10812;DHT22;5458;51.496;7.334;2022-07-29T07:35:31;25.10;81.00
10812;DHT22;5458;51.496;7.334;2022-07-29T07:37:57;25.50;80.70
10812;DHT22;5458;51.496;7.334;2022-07-29T07:40:23;27.00;77.10
10812;DHT22;5458;51.496;7.334;2022-07-29T07:42:49;28.70;71.00
10812;DHT22;5458;51.496;7.334;2022-07-29T07:45:14;29.00;67.20
10812;DHT22;5458;51.496;7.334;2022-07-29T07:47:41;28.60;68.50
10812;DHT22;5458;51.496;7.334;2022-07-29T07:50:08;27.90;71.10
10812;DHT22;5458;51.496;7.334;2022-07-29T07:52:34;27.10;73.90
10812;DHT22;5458;51.496;7.334;2022-07-29T07:55:00;26.30;75.00
10812;DHT22;5458;51.496;7.334;2022-07-29T07:57:26;25.70;78.00
10812;DHT22;5458;51.496;7.334;2022-07-29T07:59:52;25.20;78.80
10812;DHT22;5458;51.496;7.334;2022-07-29T08:02:17;24.70;80.00
10812;DHT22;5458;51.496;7.334;2022-07-29T08:04:43;24.30;81.00
10812;DHT22;5458;51.496;7.334;2022-07-29T08:07:08;24.10;81.10
10812;DHT22;5458;51.496;7.334;2022-07-29T08:09:35;23.90;82.90
10812;DHT22;5458;51.496;7.334;2022-07-29T08:12:00;24.00;85.80
10812;DHT22;5458;51.496;7.334;2022-07-29T08:14:30;24.40;85.50
10812;DHT22;5458;51.496;7.334;2022-07-29T08:16:55;24.60;84.80
10812;DHT22;5458;51.496;7.334;2022-07-29T08:19:21;24.80;84.20
10812;DHT22;5458;51.496;7.334;2022-07-29T08:21:47;24.90;83.70
10812;DHT22;5458;51.496;7.334;2022-07-29T08:24:13;24.90;83.30
10812;DHT22;5458;51.496;7.334;2022-07-29T08:26:57;24.80;81.90
10812;DHT22;5458;51.496;7.334;2022-07-29T08:29:22;24.60;83.30
10812;DHT22;5458;51.496;7.334;2022-07-29T08:31:48;24.40;84.80
10812;DHT22;5458;51.496;7.334;2022-07-29T08:34:14;24.30;85.10
10812;DHT22;5458;51.496;7.334;2022-07-29T08:36:39;24.10;83.70
10812;DHT22;5458;51.496;7.334;2022-07-29T08:39:05;24.00;84.40
10812;DHT22;5458;51.496;7.334;2022-07-29T08:41:30;23.90;85.00
10812;DHT22;5458;51.496;7.334;2022-07-29T08:43:56;23.90;86.60
10812;DHT22;5458;51.496;7.334;2022-07-29T08:46:22;24.10;86.10
10812;DHT22;5458;51.496;7.334;2022-07-29T08:48:48;24.30;86.60
10812;DHT22;5458;51.496;7.334;2022-07-29T08:51:16;24.30;84.40
10812;DHT22;5458;51.496;7.334;2022-07-29T08:53:43;24.40;84.40
10812;DHT22;5458;51.496;7.334;2022-07-29T08:56:12;24.50;83.70
10812;DHT22;5458;51.496;7.334;2022-07-29T08:58:45;24.50;84.40
10812;DHT22;5458;51.496;7.334;2022-07-29T09:01:14;24.50;84.50
10812;DHT22;5458;51.496;7.334;2022-07-29T09:03:43;24.40;82.90
10812;DHT22;5458;51.496;7.334;2022-07-29T09:06:15;24.30;83.70
10812;DHT22;5458;51.496;7.334;2022-07-29T09:08:42;24.10;84.00
10812;DHT22;5458;51.496;7.334;2022-07-29T09:11:08;24.00;84.20
10812;DHT22;5458;51.496;7.334;2022-07-29T09:13:35;23.80;84.20
10812;DHT22;5458;51.496;7.334;2022-07-29T09:16:01;23.60;85.30
10812;DHT22;5458;51.496;7.334;2022-07-29T09:18:43;23.50;85.60
10812;DHT22;5458;51.496;7.334;2022-07-29T09:21:11;23.30;86.10
10812;DHT22;5458;51.496;7.334;2022-07-29T09:24:10;23.20;86.60
10812;DHT22;5458;51.496;7.334;2022-07-29T09:26:41;23.10;87.80
10812;DHT22;5458;51.496;7.334;2022-07-29T09:29:21;23.00;87.90
10812;DHT22;5458;51.496;7.334;2022-07-29T09:31:50;22.90;89.40
10812;DHT22;5458;51.496;7.334;2022-07-29T09:34:21;22.90;89.10
10812;DHT22;5458;51.496;7.334;2022-07-29T09:36:49;22.90;89.90
10812;DHT22;5458;51.496;7.334;2022-07-29T09:39:26;23.00;89.70
10812;DHT22;5458;51.496;7.334;2022-07-29T09:41:53;22.90;90.10
10812;DHT22;5458;51.496;7.334;2022-07-29T09:44:20;23.00;89.70
10812;DHT22;5458;51.496;7.334;2022-07-29T09:47:00;23.10;90.30
10812;DHT22;5458;51.496;7.334;2022-07-29T09:49:35;23.00;90.50
10812;DHT22;5458;51.496;7.334;2022-07-29T09:52:07;22.90;90.50
10812;DHT22;5458;51.496;7.334;2022-07-29T09:54:33;22.70;90.40
10812;DHT22;5458;51.496;7.334;2022-07-29T09:57:04;22.70;90.70
10812;DHT22;5458;51.496;7.334;2022-07-29T09:59:30;22.60;90.40
10812;DHT22;5458;51.496;7.334;2022-07-29T10:01:56;22.50;90.60
10812;DHT22;5458;51.496;7.334;2022-07-29T10:04:22;22.50;90.90
10812;DHT22;5458;51.496;7.334;2022-07-29T10:07:00;22.50;90.90
10812;DHT22;5458;51.496;7.334;2022-07-29T10:09:26;22.40;91.00
10812;DHT22;5458;51.496;7.334;2022-07-29T10:14:33;22.20;91.30
10812;DHT22;5458;51.496;7.334;2022-07-29T10:17:00;22.10;91.40
10812;DHT22;5458;51.496;7.334;2022-07-29T10:19:32;22.00;91.50
10812;DHT22;5458;51.496;7.334;2022-07-29T10:21:59;21.90;91.60
10812;DHT22;5458;51.496;7.334;2022-07-29T10:24:26;21.80;91.60
10812;DHT22;5458;51.496;7.334;2022-07-29T10:26:54;21.80;92.00
10812;DHT22;5458;51.496;7.334;2022-07-29T10:29:20;21.70;92.20
10812;DHT22;5458;51.496;7.334;2022-07-29T10:34:57;21.60;92.40
10812;DHT22;5458;51.496;7.334;2022-07-29T10:40:39;21.80;93.60
10812;DHT22;5458;51.496;7.334;2022-07-29T10:43:33;21.80;93.50
10812;DHT22;5458;51.496;7.334;2022-07-29T10:46:02;21.80;93.60
10812;DHT22;5458;51.496;7.334;2022-07-29T10:48:28;21.70;93.80
10812;DHT22;5458;51.496;7.334;2022-07-29T10:51:00;21.70;93.60
10812;DHT22;5458;51.496;7.334;2022-07-29T10:53:48;21.60;93.90
10812;DHT22;5458;51.496;7.334;2022-07-29T10:56:30;21.60;94.20
10812;DHT22;5458;51.496;7.334;2022-07-29T11:01:47;21.70;94.60
10812;DHT22;5458;51.496;7.334;2022-07-29T11:04:12;21.50;94.50
10812;DHT22;5458;51.496;7.334;2022-07-29T11:09:25;21.50;94.70
10812;DHT22;5458;51.496;7.334;2022-07-29T11:11:51;21.60;94.70
10812;DHT22;5458;51.496;7.334;2022-07-29T11:14:18;21.60;94.90
10812;DHT22;5458;51.496;7.334;2022-07-29T11:17:01;21.60;94.20
10812;DHT22;5458;51.496;7.334;2022-07-29T11:19:28;21.60;93.70
10812;DHT22;5458;51.496;7.334;2022-07-29T11:21:53;21.50;93.40
10812;DHT22;5458;51.496;7.334;2022-07-29T11:24:27;21.50;92.90
10812;DHT22;5458;51.496;7.334;2022-07-29T11:27:13;21.50;93.40
10812;DHT22;5458;51.496;7.334;2022-07-29T11:32:19;21.50;92.80
10812;DHT22;5458;51.496;7.334;2022-07-29T11:34:46;21.50;92.50
10812;DHT22;5458;51.496;7.334;2022-07-29T11:47:23;21.70;92.80
10812;DHT22;5458;51.496;7.334;2022-07-29T11:49:54;21.70;92.80
10812;DHT22;5458;51.496;7.334;2022-07-29T11:52:20;21.80;93.50
10812;DHT22;5458;51.496;7.334;2022-07-29T11:54:48;21.80;93.10
10812;DHT22;5458;51.496;7.334;2022-07-29T11:57:16;21.80;93.80
10812;DHT22;5458;51.496;7.334;2022-07-29T11:59:44;21.80;94.80
10812;DHT22;5458;51.496;7.334;2022-07-29T12:02:10;21.80;95.60
10812;DHT22;5458;51.496;7.334;2022-07-29T12:04:50;21.80;95.20
10812;DHT22;5458;51.496;7.334;2022-07-29T12:07:16;21.80;95.40
10812;DHT22;5458;51.496;7.334;2022-07-29T12:09:50;21.80;96.20
10812;DHT22;5458;51.496;7.334;2022-07-29T12:12:16;21.80;96.20
10812;DHT22;5458;51.496;7.334;2022-07-29T12:14:42;21.90;95.70
10812;DHT22;5458;51.496;7.334;2022-07-29T12:19:55;21.80;95.10
10812;DHT22;5458;51.496;7.334;2022-07-29T12:22:26;21.90;95.20
10812;DHT22;5458;51.496;7.334;2022-07-29T12:24:52;22.00;94.80
10812;DHT22;5458;51.496;7.334;2022-07-29T12:27:18;22.10;94.90
10812;DHT22;5458;51.496;7.334;2022-07-29T12:29:44;22.20;94.20
10812;DHT22;5458;51.496;7.334;2022-07-29T12:32:09;22.30;93.70
10812;DHT22;5458;51.496;7.334;2022-07-29T12:34:35;22.30;93.90
10812;DHT22;5458;51.496;7.334;2022-07-29T12:37:01;22.50;93.60
10812;DHT22;5458;51.496;7.334;2022-07-29T12:39:27;22.60;93.60
10812;DHT22;5458;51.496;7.334;2022-07-29T12:41:53;22.80;93.30
10812;DHT22;5458;51.496;7.334;2022-07-29T12:44:19;22.90;93.50
10812;DHT22;5458;51.496;7.334;2022-07-29T12:46:46;23.00;92.20
10812;DHT22;5458;51.496;7.334;2022-07-29T12:49:26;23.10;92.70
10812;DHT22;5458;51.496;7.334;2022-07-29T12:51:51;23.20;93.00
10812;DHT22;5458;51.496;7.334;2022-07-29T12:54:17;23.20;92.90
10812;DHT22;5458;51.496;7.334;2022-07-29T12:56:44;23.30;92.80
10812;DHT22;5458;51.496;7.334;2022-07-29T12:59:15;23.40;92.90
10812;DHT22;5458;51.496;7.334;2022-07-29T13:01:41;23.50;92.80
10812;DHT22;5458;51.496;7.334;2022-07-29T13:04:07;23.50;91.50
10812;DHT22;5458;51.496;7.334;2022-07-29T13:06:42;23.50;92.40
10812;DHT22;5458;51.496;7.334;2022-07-29T13:09:15;23.50;93.20
10812;DHT22;5458;51.496;7.334;2022-07-29T13:11:42;23.50;92.50
10812;DHT22;5458;51.496;7.334;2022-07-29T13:14:10;23.70;93.30
10812;DHT22;5458;51.496;7.334;2022-07-29T13:17:04;23.80;92.70
10812;DHT22;5458;51.496;7.334;2022-07-29T13:19:41;24.00;92.10
10812;DHT22;5458;51.496;7.334;2022-07-29T13:22:26;24.00;90.50
10812;DHT22;5458;51.496;7.334;2022-07-29T13:24:57;24.10;91.60
10812;DHT22;5458;51.496;7.334;2022-07-29T13:27:27;24.30;91.30
10812;DHT22;5458;51.496;7.334;2022-07-29T13:29:56;24.30;90.30
10812;DHT22;5458;51.496;7.334;2022-07-29T13:32:24;24.30;90.20
10812;DHT22;5458;51.496;7.334;2022-07-29T13:34:51;24.20;90.20
10812;DHT22;5458;51.496;7.334;2022-07-29T13:37:18;24.00;90.20
10812;DHT22;5458;51.496;7.334;2022-07-29T13:39:43;24.00;90.10
10812;DHT22;5458;51.496;7.334;2022-07-29T13:42:09;24.10;90.50
10812;DHT22;5458;51.496;7.334;2022-07-29T13:44:35;24.30;90.60
10812;DHT22;5458;51.496;7.334;2022-07-29T13:47:01;24.40;90.30
10812;DHT22;5458;51.496;7.334;2022-07-29T13:49:27;24.40;89.00
10812;DHT22;5458;51.496;7.334;2022-07-29T13:51:53;24.40;90.20
10812;DHT22;5458;51.496;7.334;2022-07-29T13:54:19;24.50;90.80
10812;DHT22;5458;51.496;7.334;2022-07-29T13:56:45;24.60;90.50
10812;DHT22;5458;51.496;7.334;2022-07-29T13:59:11;24.60;90.30
10812;DHT22;5458;51.496;7.334;2022-07-29T14:01:37;24.70;90.70
10812;DHT22;5458;51.496;7.334;2022-07-29T14:04:04;24.70;89.10
10812;DHT22;5458;51.496;7.334;2022-07-29T14:06:30;24.70;89.60
10812;DHT22;5458;51.496;7.334;2022-07-29T14:08:55;24.70;90.00
10812;DHT22;5458;51.496;7.334;2022-07-29T14:11:21;24.70;88.80
10812;DHT22;5458;51.496;7.334;2022-07-29T14:13:46;24.80;88.60
10812;DHT22;5458;51.496;7.334;2022-07-29T14:16:12;24.80;87.80
10812;DHT22;5458;51.496;7.334;2022-07-29T14:18:38;24.80;89.10
10812;DHT22;5458;51.496;7.334;2022-07-29T14:21:03;24.90;89.30
10812;DHT22;5458;51.496;7.334;2022-07-29T14:23:29;25.00;88.50
10812;DHT22;5458;51.496;7.334;2022-07-29T14:25:55;25.10;87.90
10812;DHT22;5458;51.496;7.334;2022-07-29T14:28:20;25.20;87.30
10812;DHT22;5458;51.496;7.334;2022-07-29T14:30:46;25.30;87.80
10812;DHT22;5458;51.496;7.334;2022-07-29T14:33:12;25.40;85.20
10812;DHT22;5458;51.496;7.334;2022-07-29T14:35:38;25.40;86.10
10812;DHT22;5458;51.496;7.334;2022-07-29T14:38:03;25.40;86.80
10812;DHT22;5458;51.496;7.334;2022-07-29T14:40:29;25.40;88.10
10812;DHT22;5458;51.496;7.334;2022-07-29T14:42:54;25.50;86.50
10812;DHT22;5458;51.496;7.334;2022-07-29T14:45:20;25.50;85.80
10812;DHT22;5458;51.496;7.334;2022-07-29T14:47:46;25.60;85.30
10812;DHT22;5458;51.496;7.334;2022-07-29T14:50:12;25.70;85.90
10812;DHT22;5458;51.496;7.334;2022-07-29T14:52:38;25.80;85.30
10812;DHT22;5458;51.496;7.334;2022-07-29T14:55:04;25.80;85.20
10812;DHT22;5458;51.496;7.334;2022-07-29T14:57:30;25.90;84.90
10812;DHT22;5458;51.496;7.334;2022-07-29T14:59:56;25.90;85.10
10812;DHT22;5458;51.496;7.334;2022-07-29T15:02:21;25.90;84.80
10812;DHT22;5458;51.496;7.334;2022-07-29T15:04:47;25.80;83.10
10812;DHT22;5458;51.496;7.334;2022-07-29T15:07:14;25.70;83.00
10812;DHT22;5458;51.496;7.334;2022-07-29T15:09:39;25.60;82.70
10812;DHT22;5458;51.496;7.334;2022-07-29T15:12:06;25.60;83.40
10812;DHT22;5458;51.496;7.334;2022-07-29T15:14:32;25.60;82.60
10812;DHT22;5458;51.496;7.334;2022-07-29T15:16:57;25.60;82.10
10812;DHT22;5458;51.496;7.334;2022-07-29T15:19:23;25.60;82.00
10812;DHT22;5458;51.496;7.334;2022-07-29T15:21:49;25.50;81.70
10812;DHT22;5458;51.496;7.334;2022-07-29T15:24:16;25.50;80.40
10812;DHT22;5458;51.496;7.334;2022-07-29T15:26:41;25.50;80.40
10812;DHT22;5458;51.496;7.334;2022-07-29T15:29:08;25.60;81.40
10812;DHT22;5458;51.496;7.334;2022-07-29T15:31:33;25.60;80.90
10812;DHT22;5458;51.496;7.334;2022-07-29T15:33:59;25.60;80.40
10812;DHT22;5458;51.496;7.334;2022-07-29T15:36:25;25.70;80.60
10812;DHT22;5458;51.496;7.334;2022-07-29T15:38:52;25.60;80.50
10812;DHT22;5458;51.496;7.334;2022-07-29T15:41:18;25.50;81.30
10812;DHT22;5458;51.496;7.334;2022-07-29T15:43:44;25.50;82.50
10812;DHT22;5458;51.496;7.334;2022-07-29T15:46:13;25.40;83.30
10812;DHT22;5458;51.496;7.334;2022-07-29T15:48:58;25.40;83.40
10812;DHT22;5458;51.496;7.334;2022-07-29T15:51:24;25.40;83.20
10812;DHT22;5458;51.496;7.334;2022-07-29T15:53:49;25.40;85.00
10812;DHT22;5458;51.496;7.334;2022-07-29T15:56:15;25.30;84.50
10812;DHT22;5458;51.496;7.334;2022-07-29T15:58:41;25.30;84.70
10812;DHT22;5458;51.496;7.334;2022-07-29T16:01:06;25.20;84.80
10812;DHT22;5458;51.496;7.334;2022-07-29T16:03:32;25.10;83.90
10812;DHT22;5458;51.496;7.334;2022-07-29T16:05:57;25.10;83.00
10812;DHT22;5458;51.496;7.334;2022-07-29T16:08:23;24.90;82.40
10812;DHT22;5458;51.496;7.334;2022-07-29T16:10:48;25.00;82.30
10812;DHT22;5458;51.496;7.334;2022-07-29T16:13:14;24.90;81.90
10812;DHT22;5458;51.496;7.334;2022-07-29T16:15:40;24.90;81.40
10812;DHT22;5458;51.496;7.334;2022-07-29T16:18:05;25.00;81.60
10812;DHT22;5458;51.496;7.334;2022-07-29T16:20:33;25.10;82.00
10812;DHT22;5458;51.496;7.334;2022-07-29T16:22:58;25.10;81.50
10812;DHT22;5458;51.496;7.334;2022-07-29T16:25:24;25.20;81.40
10812;DHT22;5458;51.496;7.334;2022-07-29T16:27:49;25.30;81.70
10812;DHT22;5458;51.496;7.334;2022-07-29T16:30:15;25.30;81.90
10812;DHT22;5458;51.496;7.334;2022-07-29T16:32:40;25.30;81.70
10812;DHT22;5458;51.496;7.334;2022-07-29T16:35:07;25.40;81.00